createdAt,value
2023-05-22T00:00:08.664Z,6.53
2023-05-22T00:02:38.841Z,6.32
2023-05-22T00:05:06.850Z,6.72
2023-05-22T00:07:33.622Z,6.32
2023-05-22T00:10:00.269Z,5.82
2023-05-22T00:12:26.924Z,5.60
2023-05-22T00:14:53.600Z,5.82
2023-05-22T00:17:20.478Z,5.97
2023-05-22T00:19:47.698Z,5.85
2023-05-22T00:22:14.362Z,5.55
2023-05-22T00:24:41.044Z,5.72
2023-05-22T00:27:07.728Z,5.70
2023-05-22T00:29:34.634Z,5.82
2023-05-22T00:32:01.325Z,5.22
2023-05-22T00:34:28.053Z,5.50
2023-05-22T00:36:55.071Z,5.40
2023-05-22T00:39:21.782Z,5.22
2023-05-22T00:41:48.547Z,5.15
2023-05-22T00:44:15.378Z,4.13
2023-05-22T00:46:43.135Z,4.35
2023-05-22T00:49:09.914Z,5.10
2023-05-22T00:51:36.618Z,4.88
2023-05-22T00:54:04.457Z,4.88
2023-05-22T00:56:31.219Z,5.18
2023-05-22T00:58:59.008Z,4.70
2023-05-22T01:01:26.491Z,5.07
2023-05-22T01:03:54.072Z,4.80
2023-05-22T01:06:24.322Z,5.15
2023-05-22T01:08:51.025Z,4.30
2023-05-22T01:11:48.587Z,4.65
2023-05-22T01:14:31.057Z,4.40
2023-05-22T01:17:40.669Z,4.40
2023-05-22T01:20:35.361Z,4.40
2023-05-22T01:23:26.709Z,5.25
2023-05-22T01:26:35.505Z,4.65
2023-05-22T01:29:29.097Z,4.25
2023-05-22T01:31:58.685Z,5.30
2023-05-22T01:34:26.556Z,5.30
2023-05-22T01:36:54.517Z,4.45
2023-05-22T01:39:22.696Z,5.32
2023-05-22T01:41:50.274Z,5.00
2023-05-22T01:44:16.999Z,4.70
2023-05-22T01:46:43.659Z,5.10
2023-05-22T01:49:10.697Z,4.82
2023-05-22T01:51:50.782Z,5.35
2023-05-22T01:54:39.153Z,5.68
2023-05-22T01:57:18.730Z,5.43
2023-05-22T01:59:47.614Z,4.95
2023-05-22T02:02:17.989Z,4.40
2023-05-22T02:04:54.357Z,4.60
2023-05-22T02:07:24.894Z,5.47
2023-05-22T02:09:55.647Z,5.20
2023-05-22T02:12:23.345Z,5.28
2023-05-22T02:14:50.477Z,4.93
2023-05-22T02:17:21.995Z,5.10
2023-05-22T02:19:48.851Z,5.00
2023-05-22T02:22:15.608Z,4.78
2023-05-22T02:24:45.860Z,4.50
2023-05-22T02:27:12.905Z,4.15
2023-05-22T02:29:40.059Z,4.72
2023-05-22T02:32:06.996Z,5.03
2023-05-22T02:34:33.714Z,4.63
2023-05-22T02:37:03.604Z,4.50
2023-05-22T02:39:30.860Z,5.30
2023-05-22T02:41:57.563Z,4.60
2023-05-22T02:44:24.252Z,4.85
2023-05-22T02:46:51.007Z,4.85
2023-05-22T02:49:17.739Z,4.85
2023-05-22T02:51:47.552Z,5.05
2023-05-22T02:54:15.919Z,5.03
2023-05-22T02:56:43.245Z,5.30
2023-05-22T02:59:10.176Z,4.75
2023-05-22T03:01:38.702Z,5.45
2023-05-22T03:04:06.558Z,4.90
2023-05-22T03:06:35.057Z,5.60
2023-05-22T03:09:03.947Z,5.75
2023-05-22T03:11:31.580Z,4.30
2023-05-22T03:13:58.574Z,5.28
2023-05-22T03:16:25.892Z,4.75
2023-05-22T03:19:16.463Z,5.13
2023-05-22T03:21:48.401Z,4.43
2023-05-22T03:24:15.147Z,5.32
2023-05-22T03:26:42.014Z,5.00
2023-05-22T03:29:08.765Z,4.50
2023-05-22T03:31:36.448Z,5.15
2023-05-22T03:34:03.701Z,5.00
2023-05-22T03:36:34.026Z,5.15
2023-05-22T03:41:27.748Z,4.85
2023-05-22T03:43:54.438Z,4.25
2023-05-22T03:46:21.352Z,5.28
2023-05-22T03:48:48.246Z,5.30
2023-05-22T03:51:14.956Z,5.15
2023-05-22T03:53:41.635Z,4.80
2023-05-22T03:56:08.327Z,5.07
2023-05-22T03:58:35.027Z,4.90
2023-05-22T04:01:01.906Z,4.68
2023-05-22T04:03:28.736Z,4.55
2023-05-22T04:05:56.800Z,5.03
2023-05-22T04:08:23.582Z,4.70
2023-05-22T04:10:50.251Z,4.43
2023-05-22T04:13:17.331Z,4.47
2023-05-22T04:15:46.760Z,4.30
2023-05-22T04:18:14.108Z,4.65
2023-05-22T04:20:41.157Z,4.25
2023-05-22T04:23:08.113Z,4.90
2023-05-22T04:25:36.386Z,4.97
2023-05-22T04:28:04.102Z,4.45
2023-05-22T04:30:33.989Z,5.30
2023-05-22T04:33:01.541Z,4.88
2023-05-22T04:35:29.589Z,4.50
2023-05-22T04:38:02.542Z,4.68
2023-05-22T04:40:30.353Z,4.68
2023-05-22T04:42:59.824Z,4.90
2023-05-22T04:45:30.562Z,4.72
2023-05-22T04:47:57.340Z,5.65
2023-05-22T04:50:24.232Z,5.57
2023-05-22T04:52:50.989Z,5.78
2023-05-22T04:55:19.134Z,5.63
2023-05-22T04:57:46.033Z,4.85
2023-05-22T05:00:14.464Z,4.85
2023-05-22T05:02:41.364Z,4.60
2023-05-22T05:05:08.558Z,5.45
2023-05-22T05:07:39.361Z,5.22
2023-05-22T05:10:07.271Z,5.43
2023-05-22T05:12:34.217Z,5.03
2023-05-22T05:15:01.104Z,5.35
2023-05-22T05:17:27.806Z,5.70
2023-05-22T05:19:54.570Z,5.53
2023-05-22T05:22:21.279Z,6.30
2023-05-22T05:24:48.019Z,5.55
2023-05-22T05:27:15.243Z,5.45
2023-05-22T05:29:42.496Z,6.15
2023-05-22T05:32:10.107Z,5.93
2023-05-22T05:34:36.888Z,6.07
2023-05-22T05:37:05.813Z,5.80
2023-05-22T05:39:32.647Z,6.10
2023-05-22T05:42:00.224Z,8.00
2023-05-22T05:44:27.121Z,4.40
2023-05-22T05:46:54.025Z,4.90
2023-05-22T05:49:20.799Z,4.47
2023-05-22T05:51:47.428Z,16.20
2023-05-22T05:54:14.167Z,35.75
2023-05-22T05:57:51.150Z,20.45
2023-05-22T06:00:18.429Z,15.20
2023-05-22T06:02:50.333Z,7.05
2023-05-22T06:05:19.270Z,4.13
2023-05-22T06:07:46.311Z,3.50
2023-05-22T06:10:13.039Z,4.15
2023-05-22T06:12:40.044Z,3.53
2023-05-22T06:15:07.679Z,3.05
2023-05-22T06:17:35.200Z,3.55
2023-05-22T06:20:01.973Z,3.50
2023-05-22T06:22:29.394Z,3.33
2023-05-22T06:24:56.146Z,3.22
2023-05-22T06:27:24.153Z,2.85
2023-05-22T06:29:51.385Z,3.38
2023-05-22T06:32:18.860Z,3.30
2023-05-22T06:34:48.019Z,6.07
2023-05-22T06:37:14.907Z,14.00
2023-05-22T06:39:41.633Z,3.80
2023-05-22T06:42:08.360Z,3.85
2023-05-22T06:44:37.146Z,3.45
2023-05-22T06:47:04.185Z,3.65
2023-05-22T06:49:30.852Z,3.35
2023-05-22T06:51:57.561Z,3.60
2023-05-22T06:54:24.252Z,4.20
2023-05-22T06:56:50.962Z,3.38
2023-05-22T06:59:17.896Z,4.45
2023-05-22T07:01:44.651Z,3.42
2023-05-22T07:04:13.301Z,3.42
2023-05-22T07:06:41.821Z,3.90
2023-05-22T07:09:11.014Z,4.10
2023-05-22T07:11:37.828Z,3.92
2023-05-22T07:14:04.556Z,3.78
2023-05-22T07:16:31.506Z,3.85
2023-05-22T07:18:58.439Z,4.03
2023-05-22T07:21:25.140Z,4.15
2023-05-22T07:23:52.930Z,3.70
2023-05-22T07:26:19.708Z,4.22
2023-05-22T07:28:46.390Z,4.75
2023-05-22T07:31:13.109Z,4.32
2023-05-22T07:33:39.937Z,4.03
2023-05-22T07:36:06.883Z,4.13
2023-05-22T07:38:33.597Z,4.10
2023-05-22T07:41:00.254Z,4.30
2023-05-22T07:43:26.938Z,4.45
2023-05-22T07:45:54.303Z,5.10
2023-05-22T07:48:21.134Z,4.22
2023-05-22T07:50:47.880Z,4.40
2023-05-22T07:53:14.949Z,4.10
2023-05-22T07:55:42.292Z,4.10
2023-05-22T07:58:10.759Z,4.68
2023-05-22T08:00:37.462Z,4.50
2023-05-22T08:03:04.523Z,4.55
2023-05-22T08:05:31.344Z,4.47
2023-05-22T08:07:58.095Z,4.20
2023-05-22T08:10:26.442Z,4.32
2023-05-22T08:12:53.306Z,4.18
2023-05-22T08:15:20.167Z,4.43
2023-05-22T08:17:46.984Z,4.13
2023-05-22T08:20:13.846Z,4.97
2023-05-22T08:22:41.849Z,4.15
2023-05-22T08:25:09.230Z,4.10
2023-05-22T08:27:36.052Z,4.32
2023-05-22T08:30:04.557Z,4.63
2023-05-22T08:32:31.715Z,4.22
2023-05-22T08:34:59.457Z,4.57
2023-05-22T08:37:26.432Z,4.20
2023-05-22T08:39:53.200Z,4.97
2023-05-22T08:42:20.024Z,4.32
2023-05-22T08:44:47.533Z,4.50
2023-05-22T08:47:15.555Z,4.50
2023-05-22T08:49:43.587Z,4.88
2023-05-22T08:52:18.550Z,4.53
2023-05-22T08:54:53.111Z,4.63
2023-05-22T08:57:20.702Z,4.53
2023-05-22T08:59:48.315Z,4.05
2023-05-22T09:02:17.194Z,4.60
2023-05-22T09:04:44.042Z,4.60
2023-05-22T09:07:10.831Z,4.45
2023-05-22T09:09:38.622Z,4.53
2023-05-22T09:12:10.116Z,4.43
2023-05-22T09:14:42.125Z,4.63
2023-05-22T09:17:11.307Z,4.38
2023-05-22T09:19:43.113Z,5.07
2023-05-22T09:22:09.801Z,5.40
2023-05-22T09:24:43.557Z,4.32
2023-05-22T09:27:11.395Z,4.38
2023-05-22T09:29:48.667Z,4.90
2023-05-22T09:32:17.010Z,4.97
2023-05-22T09:34:45.122Z,5.25
2023-05-22T09:37:14.642Z,4.53
2023-05-22T09:39:46.148Z,5.05
2023-05-22T09:42:15.416Z,4.95
2023-05-22T09:44:44.938Z,5.25
2023-05-22T09:47:11.655Z,5.30
2023-05-22T09:49:43.408Z,5.75
2023-05-22T09:52:15.055Z,5.32
2023-05-22T09:54:55.208Z,5.57
2023-05-22T09:59:57.431Z,5.63
2023-05-22T10:02:26.034Z,5.00
2023-05-22T10:04:54.630Z,5.22
2023-05-22T10:07:34.768Z,4.85
2023-05-22T10:10:09.311Z,5.80
2023-05-22T10:12:53.966Z,5.50
2023-05-22T10:15:21.341Z,5.43
2023-05-22T10:17:49.312Z,4.90
2023-05-22T10:20:16.977Z,5.88
2023-05-22T10:22:44.346Z,5.70
2023-05-22T10:25:11.701Z,6.13
2023-05-22T10:27:40.697Z,4.90
2023-05-22T10:30:32.507Z,5.85
2023-05-22T10:33:30.924Z,5.80
2023-05-22T10:36:02.554Z,5.07
2023-05-22T10:38:51.694Z,5.32
2023-05-22T10:41:18.733Z,6.35
2023-05-22T10:43:49.280Z,5.55
2023-05-22T10:46:16.444Z,5.88
2023-05-22T10:48:47.774Z,5.30
2023-05-22T10:51:17.946Z,4.88
2023-05-22T10:56:18.075Z,5.97
2023-05-22T10:58:55.583Z,5.30
2023-05-22T11:01:26.062Z,4.95
2023-05-22T11:04:09.318Z,5.10
2023-05-22T11:06:36.068Z,5.20
2023-05-22T11:09:35.055Z,4.70
2023-05-22T11:12:24.705Z,4.63
2023-05-22T11:14:51.488Z,4.72
2023-05-22T11:17:25.849Z,5.03
2023-05-22T11:20:03.206Z,4.95
2023-05-22T11:22:41.162Z,5.25
2023-05-22T11:25:16.631Z,6.15
2023-05-22T11:27:44.650Z,4.72
2023-05-22T11:30:12.602Z,5.18
2023-05-22T11:32:41.359Z,5.13
2023-05-22T11:35:08.625Z,5.15
2023-05-22T11:37:41.739Z,5.28
2023-05-22T11:40:09.623Z,5.20
2023-05-22T11:42:37.794Z,4.85
2023-05-22T11:45:05.401Z,5.95
2023-05-22T11:47:32.400Z,5.07
2023-05-22T11:49:59.867Z,4.57
2023-05-22T11:52:32.374Z,5.60
2023-05-22T11:54:59.792Z,4.60
2023-05-22T11:57:26.802Z,5.25
2023-05-22T11:59:53.472Z,5.30
2023-05-22T12:02:20.476Z,5.15
2023-05-22T12:04:47.188Z,5.50
2023-05-22T12:07:14.412Z,5.30
2023-05-22T12:09:42.735Z,5.22
2023-05-22T12:12:11.511Z,5.50
2023-05-22T12:14:38.384Z,5.63
2023-05-22T12:17:05.260Z,5.43
2023-05-22T12:19:32.641Z,5.15
2023-05-22T12:21:59.693Z,5.35
2023-05-22T12:24:26.540Z,5.05
2023-05-22T12:26:53.918Z,5.30
2023-05-22T12:29:23.584Z,5.13
2023-05-22T12:31:50.965Z,5.10
2023-05-22T12:34:21.181Z,5.78
2023-05-22T12:36:48.661Z,4.85
2023-05-22T12:39:19.280Z,5.70
2023-05-22T12:41:46.452Z,5.30
2023-05-22T12:44:16.819Z,5.80
2023-05-22T12:46:43.764Z,5.10
2023-05-22T12:49:11.232Z,5.32
2023-05-22T12:51:38.039Z,6.00
2023-05-22T12:54:05.073Z,5.15
2023-05-22T12:56:32.319Z,5.82
2023-05-22T12:58:58.992Z,5.55
2023-05-22T13:01:26.232Z,4.63
2023-05-22T13:03:53.045Z,5.82
2023-05-22T13:06:20.542Z,6.15
2023-05-22T13:08:47.250Z,6.13
2023-05-22T13:11:13.929Z,6.00
2023-05-22T13:13:40.715Z,5.50
2023-05-22T13:16:07.484Z,6.32
2023-05-22T13:18:34.199Z,5.90
2023-05-22T13:21:01.063Z,5.82
2023-05-22T13:23:27.829Z,5.80
2023-05-22T13:25:54.480Z,5.18
2023-05-22T13:28:21.370Z,6.38
2023-05-22T13:30:48.095Z,6.07
2023-05-22T13:33:14.826Z,5.93
2023-05-22T13:35:41.725Z,6.10
2023-05-22T13:38:08.681Z,5.63
2023-05-22T13:40:35.404Z,5.60
2023-05-22T13:43:02.149Z,5.57
2023-05-22T13:45:29.943Z,6.22
2023-05-22T13:47:56.664Z,5.32
2023-05-22T13:50:23.364Z,7.10
2023-05-22T13:52:50.105Z,5.60
2023-05-22T13:55:16.940Z,5.85
2023-05-22T13:57:43.592Z,6.00
2023-05-22T14:00:13.847Z,6.55
2023-05-22T14:02:40.782Z,6.13
2023-05-22T14:05:08.367Z,6.57
2023-05-22T14:07:35.066Z,6.18
2023-05-22T14:10:02.013Z,5.55
2023-05-22T14:12:28.732Z,5.85
2023-05-22T14:14:55.602Z,5.78
2023-05-22T14:17:22.306Z,6.45
2023-05-22T14:19:48.984Z,5.57
2023-05-22T14:22:15.667Z,6.22
2023-05-22T14:24:42.340Z,5.65
2023-05-22T14:27:10.029Z,6.03
2023-05-22T14:29:36.755Z,5.68
2023-05-22T14:32:04.875Z,5.38
2023-05-22T14:34:31.843Z,6.28
2023-05-22T14:36:58.727Z,6.28
2023-05-22T14:39:25.797Z,5.90
2023-05-22T14:41:53.290Z,5.90
2023-05-22T14:44:22.382Z,6.13
2023-05-22T14:46:51.077Z,5.75
2023-05-22T14:49:17.986Z,5.35
2023-05-22T14:51:47.925Z,5.28
2023-05-22T14:54:17.965Z,5.93
2023-05-22T14:56:45.455Z,6.05
2023-05-22T14:59:12.589Z,5.47
2023-05-22T15:01:39.605Z,5.60
2023-05-22T15:04:07.869Z,5.90
2023-05-22T15:06:34.977Z,5.45
2023-05-22T15:09:01.727Z,5.88
2023-05-22T15:11:28.427Z,5.63
2023-05-22T15:13:55.075Z,5.50
2023-05-22T15:16:22.543Z,6.43
2023-05-22T15:18:49.315Z,6.30
2023-05-22T15:21:16.749Z,6.55
2023-05-22T15:23:43.445Z,6.45
2023-05-22T15:26:10.186Z,5.57
2023-05-22T15:28:36.925Z,5.47
2023-05-22T15:31:03.614Z,5.95
2023-05-22T15:33:30.753Z,5.82
2023-05-22T15:35:57.493Z,5.93
2023-05-22T15:38:24.159Z,6.90
2023-05-22T15:40:50.894Z,7.00
2023-05-22T15:43:17.636Z,6.40
2023-05-22T15:45:47.420Z,6.18
2023-05-22T15:48:14.217Z,5.22
2023-05-22T15:50:40.980Z,5.32
2023-05-22T15:53:07.676Z,5.75
2023-05-22T15:55:34.542Z,5.30
2023-05-22T15:58:02.727Z,5.45
2023-05-22T16:00:29.421Z,5.30
2023-05-22T16:02:56.388Z,4.78
2023-05-22T16:05:23.203Z,5.32
2023-05-22T16:07:50.080Z,5.53
2023-05-22T16:10:16.869Z,5.38
2023-05-22T16:12:43.577Z,4.88
2023-05-22T16:15:10.715Z,4.97
2023-05-22T16:17:38.231Z,5.32
2023-05-22T16:20:05.773Z,5.43
2023-05-22T16:22:44.103Z,5.20
2023-05-22T16:25:17.891Z,4.68
2023-05-22T16:27:44.590Z,4.95
2023-05-22T16:30:12.183Z,5.32
2023-05-22T16:32:39.228Z,5.68
2023-05-22T16:35:06.320Z,5.53
2023-05-22T16:37:33.785Z,5.50
2023-05-22T16:40:00.989Z,5.63
2023-05-22T16:42:27.766Z,4.85
2023-05-22T16:44:54.454Z,4.75
2023-05-22T16:47:21.840Z,5.22
2023-05-22T16:49:49.438Z,4.90
2023-05-22T16:52:17.939Z,5.43
2023-05-22T16:54:44.604Z,5.43
2023-05-22T16:57:11.304Z,5.60
2023-05-22T16:59:38.108Z,5.30
2023-05-22T17:02:05.450Z,5.00
2023-05-22T17:04:32.162Z,5.47
2023-05-22T17:06:58.869Z,5.43
2023-05-22T17:09:25.820Z,5.95
2023-05-22T17:11:52.561Z,5.32
2023-05-22T17:14:21.703Z,5.57
2023-05-22T17:16:49.228Z,5.73
2023-05-22T17:19:17.863Z,5.45
2023-05-22T17:21:44.705Z,5.93
2023-05-22T17:24:14.679Z,5.07
2023-05-22T17:26:41.830Z,4.60
2023-05-22T17:29:09.427Z,5.35
2023-05-22T17:31:38.846Z,4.68
2023-05-22T17:34:06.088Z,4.75
2023-05-22T17:36:32.902Z,4.47
2023-05-22T17:38:59.779Z,4.78
2023-05-22T17:41:26.625Z,5.60
2023-05-22T17:43:54.673Z,4.97
2023-05-22T17:46:21.425Z,5.28
2023-05-22T17:48:48.189Z,4.90
2023-05-22T17:51:14.983Z,5.63
2023-05-22T17:53:42.256Z,5.07
2023-05-22T17:56:08.936Z,8.93
2023-05-22T17:58:35.795Z,6.53
2023-05-22T18:01:02.526Z,5.60
2023-05-22T18:03:30.128Z,5.97
2023-05-22T18:05:56.971Z,5.22
2023-05-22T18:08:23.758Z,5.20
2023-05-22T18:10:50.512Z,5.53
2023-05-22T18:13:19.217Z,5.65
2023-05-22T18:15:46.045Z,5.32
2023-05-22T18:18:13.227Z,5.05
2023-05-22T18:20:40.286Z,5.38
2023-05-22T18:23:07.266Z,5.45
2023-05-22T18:25:34.856Z,5.65
2023-05-22T18:28:01.536Z,5.22
2023-05-22T18:30:28.254Z,5.22
2023-05-22T18:32:55.058Z,5.18
2023-05-22T18:35:21.858Z,4.85
2023-05-22T18:37:48.535Z,4.55
2023-05-22T18:40:16.303Z,4.72
2023-05-22T18:42:43.458Z,4.68
2023-05-22T18:45:11.613Z,4.55
2023-05-22T18:47:38.393Z,4.30
2023-05-22T18:50:05.501Z,4.03
2023-05-22T18:52:32.148Z,4.43
2023-05-22T18:54:58.797Z,4.90
2023-05-22T18:57:25.550Z,4.57
2023-05-22T18:59:52.228Z,4.43
2023-05-22T19:02:21.298Z,4.60
2023-05-22T19:04:49.011Z,4.50
2023-05-22T19:07:15.849Z,5.15
2023-05-22T19:09:42.881Z,4.57
2023-05-22T19:12:09.647Z,4.45
2023-05-22T19:14:36.358Z,4.80
2023-05-22T19:17:03.400Z,4.93
2023-05-22T19:19:30.310Z,5.75
2023-05-22T19:21:57.116Z,5.60
2023-05-22T19:24:23.755Z,4.90
2023-05-22T19:26:50.454Z,5.03
2023-05-22T19:29:17.185Z,4.80
2023-05-22T19:31:43.952Z,5.28
2023-05-22T19:34:10.876Z,4.80
2023-05-22T19:36:37.654Z,5.38
2023-05-22T19:39:04.347Z,5.10
2023-05-22T19:41:31.076Z,6.07
2023-05-22T19:43:57.775Z,5.50
2023-05-22T19:46:24.554Z,5.72
2023-05-22T19:48:51.268Z,5.60
2023-05-22T19:51:17.941Z,5.55
2023-05-22T19:53:44.871Z,6.28
2023-05-22T19:56:11.975Z,5.22
2023-05-22T19:58:38.686Z,6.10
2023-05-22T20:01:05.577Z,5.65
2023-05-22T20:03:32.480Z,5.55
2023-05-22T20:05:59.175Z,5.10
2023-05-22T20:08:26.184Z,5.78
2023-05-22T20:10:52.951Z,5.40
2023-05-22T20:13:19.690Z,6.32
2023-05-22T20:15:47.650Z,6.55
2023-05-22T20:18:14.597Z,7.03
2023-05-22T20:20:41.395Z,6.97
2023-05-22T20:23:08.179Z,6.88
2023-05-22T20:25:35.038Z,6.43
2023-05-22T20:28:03.805Z,7.53
2023-05-22T20:30:31.067Z,7.95
2023-05-22T20:32:57.823Z,7.55
2023-05-22T20:35:26.354Z,8.55
2023-05-22T20:37:53.382Z,7.07
2023-05-22T20:40:20.306Z,7.95
2023-05-22T20:42:47.490Z,7.70
2023-05-22T20:45:15.422Z,8.02
2023-05-22T20:47:43.472Z,7.85
2023-05-22T20:50:11.191Z,7.22
2023-05-22T20:52:38.094Z,7.97
2023-05-22T20:55:05.501Z,8.00
2023-05-22T20:57:32.245Z,7.68
2023-05-22T20:59:59.387Z,9.52
2023-05-22T21:02:26.234Z,8.38
2023-05-22T21:04:53.240Z,7.95
2023-05-22T21:07:19.950Z,8.25
2023-05-22T21:09:46.623Z,9.50
2023-05-22T21:12:13.285Z,7.88
2023-05-22T21:14:40.332Z,8.15
2023-05-22T21:17:07.255Z,7.88
2023-05-22T21:19:34.163Z,8.23
2023-05-22T21:22:00.854Z,8.65
2023-05-22T21:24:27.712Z,7.95
2023-05-22T21:26:54.399Z,7.90
2023-05-22T21:29:21.123Z,8.63
2023-05-22T21:31:47.912Z,8.63
2023-05-22T21:34:14.804Z,8.38
2023-05-22T21:36:41.588Z,8.48
2023-05-22T21:39:08.347Z,8.75
2023-05-22T21:41:35.206Z,8.93
2023-05-22T21:44:01.867Z,8.57
2023-05-22T21:46:28.543Z,8.35
2023-05-22T21:48:55.276Z,8.27
2023-05-22T21:51:22.032Z,8.88
2023-05-22T21:53:48.690Z,8.48
2023-05-22T21:56:15.427Z,8.20
2023-05-22T21:58:42.119Z,8.73
2023-05-22T22:01:09.288Z,9.48
2023-05-22T22:03:36.073Z,8.63
2023-05-22T22:06:02.843Z,8.88
2023-05-22T22:08:29.606Z,8.57
2023-05-22T22:10:58.208Z,8.68
2023-05-22T22:13:24.937Z,9.63
2023-05-22T22:15:51.735Z,8.43
2023-05-22T22:18:18.931Z,8.02
2023-05-22T22:20:45.820Z,9.00
2023-05-22T22:23:12.868Z,9.23
2023-05-22T22:25:39.676Z,8.88
2023-05-22T22:28:07.274Z,8.95
2023-05-22T22:30:35.014Z,8.93
2023-05-22T22:33:01.831Z,8.05
2023-05-22T22:35:28.806Z,8.45
2023-05-22T22:37:55.666Z,8.80
2023-05-22T22:40:23.379Z,8.07
2023-05-22T22:42:51.619Z,8.90
2023-05-22T22:45:18.307Z,8.73
2023-05-22T22:47:45.974Z,8.77
2023-05-22T22:50:12.719Z,8.68
2023-05-22T22:52:41.624Z,8.70
2023-05-22T22:55:09.048Z,8.80
2023-05-22T22:57:36.002Z,8.50
2023-05-22T23:00:03.522Z,8.07
2023-05-22T23:02:30.222Z,9.10
2023-05-22T23:04:57.000Z,8.18
2023-05-22T23:07:24.073Z,9.07
2023-05-22T23:09:50.871Z,9.05
2023-05-22T23:12:17.549Z,9.40
2023-05-22T23:14:44.857Z,8.35
2023-05-22T23:17:11.680Z,8.38
2023-05-22T23:19:38.394Z,8.88
2023-05-22T23:22:05.244Z,8.88
2023-05-22T23:24:31.961Z,8.60
2023-05-22T23:26:58.709Z,9.02
2023-05-22T23:29:25.628Z,9.73
2023-05-22T23:31:52.410Z,8.57
2023-05-22T23:34:19.327Z,9.23
2023-05-22T23:36:46.006Z,9.50
2023-05-22T23:39:12.678Z,9.27
2023-05-22T23:41:39.340Z,10.05
2023-05-22T23:44:06.204Z,9.00
2023-05-22T23:46:32.974Z,9.23
2023-05-22T23:48:59.702Z,9.07
2023-05-22T23:51:26.407Z,9.52
2023-05-22T23:53:53.054Z,9.52
2023-05-22T23:56:19.723Z,9.98
2023-05-22T23:58:46.394Z,9.18
